sensor_id;sensor_type;location;lat;lon;timestamp;P1;durP1;ratioP1;P2;durP2;ratioP2
36315;SDS011;22343;50.820;2.666;2022-12-10T00:02:21;41.93;;;20.67;;
36315;SDS011;22343;50.820;2.666;2022-12-10T00:05:07;110.65;;;30.85;;
36315;SDS011;22343;50.820;2.666;2022-12-10T00:07:52;116.50;;;26.90;;
36315;SDS011;22343;50.820;2.666;2022-12-10T00:10:42;106.50;;;27.50;;
36315;SDS011;22343;50.820;2.666;2022-12-10T00:13:27;59.37;;;25.53;;
36315;SDS011;22343;50.820;2.666;2022-12-10T00:16:13;46.03;;;24.43;;
36315;SDS011;22343;50.820;2.666;2022-12-10T00:19:03;84.50;;;25.10;;
36315;SDS011;22343;50.820;2.666;2022-12-10T00:21:48;55.17;;;22.23;;
36315;SDS011;22343;50.820;2.666;2022-12-10T00:24:32;55.80;;;21.97;;
36315;SDS011;22343;50.820;2.666;2022-12-10T00:27:18;66.80;;;23.90;;
36315;SDS011;22343;50.820;2.666;2022-12-10T00:30:04;97.87;;;35.93;;
36315;SDS011;22343;50.820;2.666;2022-12-10T00:32:50;79.20;;;26.10;;
36315;SDS011;22343;50.820;2.666;2022-12-10T00:35:37;78.63;;;23.13;;
36315;SDS011;22343;50.820;2.666;2022-12-10T00:38:21;64.57;;;21.57;;
36315;SDS011;22343;50.820;2.666;2022-12-10T00:41:07;58.20;;;18.63;;
36315;SDS011;22343;50.820;2.666;2022-12-10T00:43:54;48.37;;;20.37;;
36315;SDS011;22343;50.820;2.666;2022-12-10T00:46:42;56.03;;;19.13;;
36315;SDS011;22343;50.820;2.666;2022-12-10T00:49:28;38.33;;;18.53;;
36315;SDS011;22343;50.820;2.666;2022-12-10T00:52:12;55.93;;;19.13;;
36315;SDS011;22343;50.820;2.666;2022-12-10T00:54:58;77.40;;;19.63;;
36315;SDS011;22343;50.820;2.666;2022-12-10T00:57:42;102.57;;;20.10;;
36315;SDS011;22343;50.820;2.666;2022-12-10T01:00:28;107.13;;;19.23;;
36315;SDS011;22343;50.820;2.666;2022-12-10T01:03:13;131.97;;;20.30;;
36315;SDS011;22343;50.820;2.666;2022-12-10T01:06:14;97.47;;;19.33;;
36315;SDS011;22343;50.820;2.666;2022-12-10T01:09:09;90.33;;;20.30;;
36315;SDS011;22343;50.820;2.666;2022-12-10T01:12:05;89.60;;;18.57;;
36315;SDS011;22343;50.820;2.666;2022-12-10T01:14:51;96.73;;;18.17;;
36315;SDS011;22343;50.820;2.666;2022-12-10T01:17:37;110.50;;;17.37;;
36315;SDS011;22343;50.820;2.666;2022-12-10T01:20:21;104.50;;;16.10;;
36315;SDS011;22343;50.820;2.666;2022-12-10T01:23:06;86.50;;;15.57;;
36315;SDS011;22343;50.820;2.666;2022-12-10T01:25:51;122.17;;;16.70;;
36315;SDS011;22343;50.820;2.666;2022-12-10T01:28:36;119.67;;;16.80;;
36315;SDS011;22343;50.820;2.666;2022-12-10T01:31:23;76.90;;;14.97;;
36315;SDS011;22343;50.820;2.666;2022-12-10T01:34:12;104.67;;;15.43;;
36315;SDS011;22343;50.820;2.666;2022-12-10T01:37:01;113.20;;;16.50;;
36315;SDS011;22343;50.820;2.666;2022-12-10T01:39:46;94.20;;;16.83;;
36315;SDS011;22343;50.820;2.666;2022-12-10T01:42:30;104.50;;;17.33;;
36315;SDS011;22343;50.820;2.666;2022-12-10T01:45:15;74.30;;;16.03;;
36315;SDS011;22343;50.820;2.666;2022-12-10T01:48:01;73.87;;;17.70;;
36315;SDS011;22343;50.820;2.666;2022-12-10T01:50:56;90.73;;;18.87;;
36315;SDS011;22343;50.820;2.666;2022-12-10T01:53:41;94.73;;;19.17;;
36315;SDS011;22343;50.820;2.666;2022-12-10T01:56:27;72.83;;;18.63;;
36315;SDS011;22343;50.820;2.666;2022-12-10T01:59:14;97.53;;;19.67;;
36315;SDS011;22343;50.820;2.666;2022-12-10T02:08:27;109.23;;;19.50;;
36315;SDS011;22343;50.820;2.666;2022-12-10T02:17:47;98.73;;;17.70;;
36315;SDS011;22343;50.820;2.666;2022-12-10T02:20:51;73.47;;;16.13;;
36315;SDS011;22343;50.820;2.666;2022-12-10T02:23:45;87.77;;;16.93;;
36315;SDS011;22343;50.820;2.666;2022-12-10T02:26:43;62.47;;;15.90;;
36315;SDS011;22343;50.820;2.666;2022-12-10T02:29:29;75.67;;;16.17;;
36315;SDS011;22343;50.820;2.666;2022-12-10T02:32:25;56.50;;;14.90;;
36315;SDS011;22343;50.820;2.666;2022-12-10T02:35:20;74.40;;;15.13;;
36315;SDS011;22343;50.820;2.666;2022-12-10T02:38:18;60.53;;;14.43;;
36315;SDS011;22343;50.820;2.666;2022-12-10T02:41:10;57.87;;;14.20;;
36315;SDS011;22343;50.820;2.666;2022-12-10T02:44:02;57.13;;;15.43;;
36315;SDS011;22343;50.820;2.666;2022-12-10T02:46:50;46.67;;;13.50;;
36315;SDS011;22343;50.820;2.666;2022-12-10T02:49:37;55.73;;;13.80;;
36315;SDS011;22343;50.820;2.666;2022-12-10T02:52:23;52.40;;;14.93;;
36315;SDS011;22343;50.820;2.666;2022-12-10T02:55:13;54.67;;;14.47;;
36315;SDS011;22343;50.820;2.666;2022-12-10T03:01:35;37.77;;;14.00;;
36315;SDS011;22343;50.820;2.666;2022-12-10T03:16:55;34.60;;;13.13;;
36315;SDS011;22343;50.820;2.666;2022-12-10T03:19:48;26.40;;;12.40;;
36315;SDS011;22343;50.820;2.666;2022-12-10T03:22:36;35.50;;;12.70;;
36315;SDS011;22343;50.820;2.666;2022-12-10T03:25:25;35.73;;;12.63;;
36315;SDS011;22343;50.820;2.666;2022-12-10T03:28:12;26.13;;;12.90;;
36315;SDS011;22343;50.820;2.666;2022-12-10T03:30:58;32.83;;;13.40;;
36315;SDS011;22343;50.820;2.666;2022-12-10T03:33:44;27.87;;;13.53;;
36315;SDS011;22343;50.820;2.666;2022-12-10T03:36:30;28.30;;;13.50;;
36315;SDS011;22343;50.820;2.666;2022-12-10T03:39:17;26.20;;;13.73;;
36315;SDS011;22343;50.820;2.666;2022-12-10T03:42:02;29.80;;;14.10;;
36315;SDS011;22343;50.820;2.666;2022-12-10T03:44:51;24.37;;;14.27;;
36315;SDS011;22343;50.820;2.666;2022-12-10T03:47:36;28.10;;;15.63;;
36315;SDS011;22343;50.820;2.666;2022-12-10T03:50:21;26.23;;;16.30;;
36315;SDS011;22343;50.820;2.666;2022-12-10T03:53:06;24.70;;;15.67;;
36315;SDS011;22343;50.820;2.666;2022-12-10T03:55:53;27.60;;;15.87;;
36315;SDS011;22343;50.820;2.666;2022-12-10T03:58:37;27.13;;;16.80;;
36315;SDS011;22343;50.820;2.666;2022-12-10T04:01:23;26.27;;;16.40;;
36315;SDS011;22343;50.820;2.666;2022-12-10T04:04:08;24.37;;;15.40;;
36315;SDS011;22343;50.820;2.666;2022-12-10T04:06:54;24.47;;;14.83;;
36315;SDS011;22343;50.820;2.666;2022-12-10T04:09:39;21.77;;;13.80;;
36315;SDS011;22343;50.820;2.666;2022-12-10T04:12:24;22.13;;;13.13;;
36315;SDS011;22343;50.820;2.666;2022-12-10T04:15:10;17.93;;;12.63;;
36315;SDS011;22343;50.820;2.666;2022-12-10T04:18:12;21.43;;;13.60;;
36315;SDS011;22343;50.820;2.666;2022-12-10T04:20:58;21.20;;;13.77;;
36315;SDS011;22343;50.820;2.666;2022-12-10T04:24:02;19.80;;;12.57;;
36315;SDS011;22343;50.820;2.666;2022-12-10T04:27:29;20.10;;;13.47;;
36315;SDS011;22343;50.820;2.666;2022-12-10T04:30:20;21.30;;;13.10;;
36315;SDS011;22343;50.820;2.666;2022-12-10T04:33:07;21.20;;;12.73;;
36315;SDS011;22343;50.820;2.666;2022-12-10T04:35:52;18.43;;;12.90;;
36315;SDS011;22343;50.820;2.666;2022-12-10T04:38:37;21.00;;;12.93;;
36315;SDS011;22343;50.820;2.666;2022-12-10T04:41:22;23.33;;;13.87;;
36315;SDS011;22343;50.820;2.666;2022-12-10T04:44:07;22.30;;;13.87;;
36315;SDS011;22343;50.820;2.666;2022-12-10T04:46:54;19.67;;;13.60;;
36315;SDS011;22343;50.820;2.666;2022-12-10T04:49:40;23.83;;;14.03;;
36315;SDS011;22343;50.820;2.666;2022-12-10T04:52:25;20.77;;;13.90;;
36315;SDS011;22343;50.820;2.666;2022-12-10T04:55:09;24.33;;;15.37;;
36315;SDS011;22343;50.820;2.666;2022-12-10T04:57:55;21.53;;;14.63;;
36315;SDS011;22343;50.820;2.666;2022-12-10T05:00:40;24.47;;;15.13;;
36315;SDS011;22343;50.820;2.666;2022-12-10T05:03:26;21.83;;;14.70;;
36315;SDS011;22343;50.820;2.666;2022-12-10T05:06:12;22.73;;;14.87;;
36315;SDS011;22343;50.820;2.666;2022-12-10T05:08:58;25.70;;;15.73;;
36315;SDS011;22343;50.820;2.666;2022-12-10T05:11:45;21.23;;;14.37;;
36315;SDS011;22343;50.820;2.666;2022-12-10T05:14:30;23.00;;;15.13;;
36315;SDS011;22343;50.820;2.666;2022-12-10T05:17:16;21.70;;;14.33;;
36315;SDS011;22343;50.820;2.666;2022-12-10T05:20:02;20.20;;;14.07;;
36315;SDS011;22343;50.820;2.666;2022-12-10T05:22:52;21.57;;;13.93;;
36315;SDS011;22343;50.820;2.666;2022-12-10T05:26:02;23.07;;;14.73;;
36315;SDS011;22343;50.820;2.666;2022-12-10T05:29:03;20.40;;;14.13;;
36315;SDS011;22343;50.820;2.666;2022-12-10T05:31:48;20.40;;;13.83;;
36315;SDS011;22343;50.820;2.666;2022-12-10T05:34:32;21.73;;;14.03;;
36315;SDS011;22343;50.820;2.666;2022-12-10T05:37:19;23.40;;;14.20;;
36315;SDS011;22343;50.820;2.666;2022-12-10T05:40:05;19.67;;;13.33;;
36315;SDS011;22343;50.820;2.666;2022-12-10T05:42:52;21.97;;;13.93;;
36315;SDS011;22343;50.820;2.666;2022-12-10T05:45:37;23.50;;;13.40;;
36315;SDS011;22343;50.820;2.666;2022-12-10T05:48:22;22.73;;;13.37;;
36315;SDS011;22343;50.820;2.666;2022-12-10T05:51:08;20.07;;;14.07;;
36315;SDS011;22343;50.820;2.666;2022-12-10T05:53:56;22.37;;;14.03;;
36315;SDS011;22343;50.820;2.666;2022-12-10T05:56:42;18.93;;;13.43;;
36315;SDS011;22343;50.820;2.666;2022-12-10T05:59:28;19.33;;;13.40;;
36315;SDS011;22343;50.820;2.666;2022-12-10T06:02:13;20.80;;;13.87;;
36315;SDS011;22343;50.820;2.666;2022-12-10T06:04:58;20.20;;;13.77;;
36315;SDS011;22343;50.820;2.666;2022-12-10T06:07:43;20.90;;;13.73;;
36315;SDS011;22343;50.820;2.666;2022-12-10T06:10:29;21.13;;;13.67;;
36315;SDS011;22343;50.820;2.666;2022-12-10T06:13:14;21.97;;;14.23;;
36315;SDS011;22343;50.820;2.666;2022-12-10T06:16:03;21.47;;;14.67;;
36315;SDS011;22343;50.820;2.666;2022-12-10T06:18:55;23.13;;;14.40;;
36315;SDS011;22343;50.820;2.666;2022-12-10T06:21:40;20.37;;;13.87;;
36315;SDS011;22343;50.820;2.666;2022-12-10T06:24:26;22.13;;;14.37;;
36315;SDS011;22343;50.820;2.666;2022-12-10T06:27:12;21.13;;;13.87;;
36315;SDS011;22343;50.820;2.666;2022-12-10T06:30:03;24.93;;;16.17;;
36315;SDS011;22343;50.820;2.666;2022-12-10T06:32:49;23.87;;;15.77;;
36315;SDS011;22343;50.820;2.666;2022-12-10T06:35:37;26.23;;;16.03;;
36315;SDS011;22343;50.820;2.666;2022-12-10T06:38:22;24.80;;;15.83;;
36315;SDS011;22343;50.820;2.666;2022-12-10T06:41:09;24.10;;;14.53;;
36315;SDS011;22343;50.820;2.666;2022-12-10T06:43:55;24.90;;;15.03;;
36315;SDS011;22343;50.820;2.666;2022-12-10T06:46:43;22.53;;;13.67;;
36315;SDS011;22343;50.820;2.666;2022-12-10T06:49:38;20.27;;;13.73;;
36315;SDS011;22343;50.820;2.666;2022-12-10T06:52:24;18.60;;;13.17;;
36315;SDS011;22343;50.820;2.666;2022-12-10T06:55:11;22.33;;;14.77;;
36315;SDS011;22343;50.820;2.666;2022-12-10T06:58:04;34.43;;;18.87;;
36315;SDS011;22343;50.820;2.666;2022-12-10T07:00:53;29.97;;;17.57;;
36315;SDS011;22343;50.820;2.666;2022-12-10T07:03:43;27.27;;;15.90;;
36315;SDS011;22343;50.820;2.666;2022-12-10T07:06:38;24.33;;;14.43;;
36315;SDS011;22343;50.820;2.666;2022-12-10T07:09:31;21.90;;;14.33;;
36315;SDS011;22343;50.820;2.666;2022-12-10T07:12:19;22.13;;;14.17;;
36315;SDS011;22343;50.820;2.666;2022-12-10T07:15:09;22.63;;;15.10;;
36315;SDS011;22343;50.820;2.666;2022-12-10T07:17:58;21.53;;;14.17;;
36315;SDS011;22343;50.820;2.666;2022-12-10T07:20:42;21.40;;;13.47;;
36315;SDS011;22343;50.820;2.666;2022-12-10T07:23:28;20.60;;;14.63;;
36315;SDS011;22343;50.820;2.666;2022-12-10T07:26:13;20.37;;;13.50;;
36315;SDS011;22343;50.820;2.666;2022-12-10T07:28:58;26.00;;;15.70;;
36315;SDS011;22343;50.820;2.666;2022-12-10T07:31:47;23.63;;;16.23;;
36315;SDS011;22343;50.820;2.666;2022-12-10T07:34:34;24.33;;;17.37;;
36315;SDS011;22343;50.820;2.666;2022-12-10T07:37:20;23.40;;;15.97;;
36315;SDS011;22343;50.820;2.666;2022-12-10T07:40:05;18.10;;;13.27;;
36315;SDS011;22343;50.820;2.666;2022-12-10T07:42:53;18.03;;;12.23;;
36315;SDS011;22343;50.820;2.666;2022-12-10T07:45:37;19.00;;;12.07;;
36315;SDS011;22343;50.820;2.666;2022-12-10T07:48:26;20.73;;;12.80;;
36315;SDS011;22343;50.820;2.666;2022-12-10T07:51:11;20.93;;;14.47;;
36315;SDS011;22343;50.820;2.666;2022-12-10T07:53:57;24.80;;;16.33;;
36315;SDS011;22343;50.820;2.666;2022-12-10T07:56:43;22.90;;;17.03;;
36315;SDS011;22343;50.820;2.666;2022-12-10T07:59:28;20.37;;;15.53;;
36315;SDS011;22343;50.820;2.666;2022-12-10T08:02:16;19.80;;;15.33;;
36315;SDS011;22343;50.820;2.666;2022-12-10T08:05:03;28.37;;;18.10;;
36315;SDS011;22343;50.820;2.666;2022-12-10T08:07:50;30.90;;;18.67;;
36315;SDS011;22343;50.820;2.666;2022-12-10T08:10:38;22.50;;;16.27;;
36315;SDS011;22343;50.820;2.666;2022-12-10T08:13:23;23.07;;;15.03;;
36315;SDS011;22343;50.820;2.666;2022-12-10T08:16:14;21.73;;;14.40;;
36315;SDS011;22343;50.820;2.666;2022-12-10T08:19:00;22.67;;;14.03;;
36315;SDS011;22343;50.820;2.666;2022-12-10T08:21:46;20.90;;;14.43;;
36315;SDS011;22343;50.820;2.666;2022-12-10T08:24:33;20.80;;;13.63;;
36315;SDS011;22343;50.820;2.666;2022-12-10T08:27:18;21.60;;;14.47;;
36315;SDS011;22343;50.820;2.666;2022-12-10T08:30:03;22.40;;;15.13;;
36315;SDS011;22343;50.820;2.666;2022-12-10T08:32:48;24.97;;;17.37;;
36315;SDS011;22343;50.820;2.666;2022-12-10T08:35:34;33.70;;;21.23;;
36315;SDS011;22343;50.820;2.666;2022-12-10T08:38:19;31.70;;;21.17;;
36315;SDS011;22343;50.820;2.666;2022-12-10T08:41:11;29.50;;;19.20;;
36315;SDS011;22343;50.820;2.666;2022-12-10T08:43:56;25.97;;;16.93;;
36315;SDS011;22343;50.820;2.666;2022-12-10T08:46:43;18.47;;;14.10;;
36315;SDS011;22343;50.820;2.666;2022-12-10T08:49:28;22.40;;;14.43;;
36315;SDS011;22343;50.820;2.666;2022-12-10T08:52:15;20.80;;;14.17;;
36315;SDS011;22343;50.820;2.666;2022-12-10T08:55:00;21.37;;;14.47;;
36315;SDS011;22343;50.820;2.666;2022-12-10T08:57:46;21.77;;;14.53;;
36315;SDS011;22343;50.820;2.666;2022-12-10T09:00:32;20.20;;;14.33;;
36315;SDS011;22343;50.820;2.666;2022-12-10T09:03:18;21.47;;;13.90;;
36315;SDS011;22343;50.820;2.666;2022-12-10T09:06:04;19.73;;;13.57;;
36315;SDS011;22343;50.820;2.666;2022-12-10T09:08:52;23.33;;;14.00;;
36315;SDS011;22343;50.820;2.666;2022-12-10T09:11:37;20.40;;;14.37;;
36315;SDS011;22343;50.820;2.666;2022-12-10T09:14:22;21.90;;;15.07;;
36315;SDS011;22343;50.820;2.666;2022-12-10T09:17:08;27.43;;;15.60;;
36315;SDS011;22343;50.820;2.666;2022-12-10T09:19:54;21.83;;;15.10;;
36315;SDS011;22343;50.820;2.666;2022-12-10T09:22:39;31.60;;;19.50;;
36315;SDS011;22343;50.820;2.666;2022-12-10T09:25:24;25.63;;;16.27;;
36315;SDS011;22343;50.820;2.666;2022-12-10T09:28:08;23.60;;;15.30;;
36315;SDS011;22343;50.820;2.666;2022-12-10T09:30:58;24.90;;;16.20;;
36315;SDS011;22343;50.820;2.666;2022-12-10T09:33:45;23.43;;;15.43;;
36315;SDS011;22343;50.820;2.666;2022-12-10T09:36:31;21.13;;;14.67;;
36315;SDS011;22343;50.820;2.666;2022-12-10T09:39:16;23.37;;;14.47;;
36315;SDS011;22343;50.820;2.666;2022-12-10T09:57:35;24.60;;;15.13;;
36315;SDS011;22343;50.820;2.666;2022-12-10T10:00:34;24.83;;;15.43;;
36315;SDS011;22343;50.820;2.666;2022-12-10T10:03:42;23.93;;;15.23;;
36315;SDS011;22343;50.820;2.666;2022-12-10T10:06:28;27.83;;;15.93;;
36315;SDS011;22343;50.820;2.666;2022-12-10T10:09:14;25.17;;;15.83;;
36315;SDS011;22343;50.820;2.666;2022-12-10T10:11:59;26.07;;;16.73;;
36315;SDS011;22343;50.820;2.666;2022-12-10T10:14:46;23.83;;;15.17;;
36315;SDS011;22343;50.820;2.666;2022-12-10T10:17:33;30.27;;;19.10;;
36315;SDS011;22343;50.820;2.666;2022-12-10T10:20:21;41.73;;;24.97;;
36315;SDS011;22343;50.820;2.666;2022-12-10T10:23:06;33.37;;;21.60;;
36315;SDS011;22343;50.820;2.666;2022-12-10T10:25:50;26.40;;;16.57;;
36315;SDS011;22343;50.820;2.666;2022-12-10T10:28:35;24.77;;;15.40;;
36315;SDS011;22343;50.820;2.666;2022-12-10T10:31:25;25.53;;;16.80;;
36315;SDS011;22343;50.820;2.666;2022-12-10T10:34:13;27.60;;;17.73;;
36315;SDS011;22343;50.820;2.666;2022-12-10T10:37:06;28.40;;;17.57;;
36315;SDS011;22343;50.820;2.666;2022-12-10T10:39:51;29.30;;;17.47;;
36315;SDS011;22343;50.820;2.666;2022-12-10T10:42:37;26.50;;;16.70;;
36315;SDS011;22343;50.820;2.666;2022-12-10T10:48:15;26.87;;;17.47;;
36315;SDS011;22343;50.820;2.666;2022-12-10T10:53:57;29.00;;;18.27;;
36315;SDS011;22343;50.820;2.666;2022-12-10T10:56:46;25.93;;;16.83;;
36315;SDS011;22343;50.820;2.666;2022-12-10T10:59:33;24.87;;;17.03;;
36315;SDS011;22343;50.820;2.666;2022-12-10T11:02:38;26.20;;;16.63;;
36315;SDS011;22343;50.820;2.666;2022-12-10T11:05:34;27.40;;;16.67;;
36315;SDS011;22343;50.820;2.666;2022-12-10T11:08:21;26.37;;;16.53;;
36315;SDS011;22343;50.820;2.666;2022-12-10T11:11:17;24.03;;;15.90;;
36315;SDS011;22343;50.820;2.666;2022-12-10T11:14:14;25.13;;;16.80;;
36315;SDS011;22343;50.820;2.666;2022-12-10T11:17:19;25.30;;;16.70;;
36315;SDS011;22343;50.820;2.666;2022-12-10T11:20:17;24.60;;;15.67;;
36315;SDS011;22343;50.820;2.666;2022-12-10T11:23:15;25.83;;;16.20;;
36315;SDS011;22343;50.820;2.666;2022-12-10T11:32:20;23.30;;;17.37;;
36315;SDS011;22343;50.820;2.666;2022-12-10T11:42:31;31.37;;;20.13;;
36315;SDS011;22343;50.820;2.666;2022-12-10T11:45:53;29.77;;;19.27;;
36315;SDS011;22343;50.820;2.666;2022-12-10T12:12:19;35.73;;;21.33;;
36315;SDS011;22343;50.820;2.666;2022-12-10T12:21:21;42.93;;;27.67;;
36315;SDS011;22343;50.820;2.666;2022-12-10T12:24:19;44.07;;;29.23;;
36315;SDS011;22343;50.820;2.666;2022-12-10T12:30:16;32.37;;;23.10;;
36315;SDS011;22343;50.820;2.666;2022-12-10T12:36:17;28.07;;;21.07;;
36315;SDS011;22343;50.820;2.666;2022-12-10T12:39:54;28.97;;;20.90;;
36315;SDS011;22343;50.820;2.666;2022-12-10T12:43:02;30.17;;;19.63;;
36315;SDS011;22343;50.820;2.666;2022-12-10T12:46:22;25.10;;;17.40;;
36315;SDS011;22343;50.820;2.666;2022-12-10T12:49:29;26.33;;;18.27;;
36315;SDS011;22343;50.820;2.666;2022-12-10T12:55:36;29.57;;;17.53;;
36315;SDS011;22343;50.820;2.666;2022-12-10T13:05:03;24.43;;;15.53;;
36315;SDS011;22343;50.820;2.666;2022-12-10T13:14:31;20.23;;;13.80;;
36315;SDS011;22343;50.820;2.666;2022-12-10T13:26:17;17.23;;;12.73;;
36315;SDS011;22343;50.820;2.666;2022-12-10T13:29:12;16.97;;;12.07;;
36315;SDS011;22343;50.820;2.666;2022-12-10T13:32:19;18.77;;;12.70;;
36315;SDS011;22343;50.820;2.666;2022-12-10T13:35:22;19.87;;;13.30;;
36315;SDS011;22343;50.820;2.666;2022-12-10T13:38:18;23.27;;;14.57;;
36315;SDS011;22343;50.820;2.666;2022-12-10T13:41:10;24.63;;;14.67;;
36315;SDS011;22343;50.820;2.666;2022-12-10T13:50:36;21.83;;;13.83;;
36315;SDS011;22343;50.820;2.666;2022-12-10T13:53:50;19.53;;;13.47;;
36315;SDS011;22343;50.820;2.666;2022-12-10T14:06:32;17.97;;;11.93;;
36315;SDS011;22343;50.820;2.666;2022-12-10T14:09:27;17.70;;;12.50;;
36315;SDS011;22343;50.820;2.666;2022-12-10T14:12:29;14.57;;;11.43;;
36315;SDS011;22343;50.820;2.666;2022-12-10T14:15:20;15.37;;;11.20;;
36315;SDS011;22343;50.820;2.666;2022-12-10T14:18:10;17.10;;;12.33;;
36315;SDS011;22343;50.820;2.666;2022-12-10T14:20:57;15.60;;;11.13;;
36315;SDS011;22343;50.820;2.666;2022-12-10T14:23:47;19.00;;;13.03;;
36315;SDS011;22343;50.820;2.666;2022-12-10T14:26:35;16.97;;;11.43;;
36315;SDS011;22343;50.820;2.666;2022-12-10T14:29:21;16.77;;;11.93;;
36315;SDS011;22343;50.820;2.666;2022-12-10T14:32:12;14.77;;;9.87;;
36315;SDS011;22343;50.820;2.666;2022-12-10T14:35:06;15.20;;;9.73;;
36315;SDS011;22343;50.820;2.666;2022-12-10T14:37:56;13.67;;;9.30;;
36315;SDS011;22343;50.820;2.666;2022-12-10T14:40:42;14.87;;;9.40;;
36315;SDS011;22343;50.820;2.666;2022-12-10T14:43:38;10.53;;;9.00;;
36315;SDS011;22343;50.820;2.666;2022-12-10T14:46:25;15.97;;;8.77;;
36315;SDS011;22343;50.820;2.666;2022-12-10T14:49:23;11.87;;;9.07;;
36315;SDS011;22343;50.820;2.666;2022-12-10T14:52:14;13.37;;;9.67;;
36315;SDS011;22343;50.820;2.666;2022-12-10T14:55:05;16.03;;;11.40;;
36315;SDS011;22343;50.820;2.666;2022-12-10T14:57:51;15.07;;;11.50;;
36315;SDS011;22343;50.820;2.666;2022-12-10T15:00:40;18.30;;;11.77;;
36315;SDS011;22343;50.820;2.666;2022-12-10T15:03:29;14.90;;;11.37;;
36315;SDS011;22343;50.820;2.666;2022-12-10T15:06:18;17.17;;;11.20;;
36315;SDS011;22343;50.820;2.666;2022-12-10T15:09:03;14.63;;;10.50;;
36315;SDS011;22343;50.820;2.666;2022-12-10T15:11:54;14.57;;;11.07;;
36315;SDS011;22343;50.820;2.666;2022-12-10T15:14:42;32.50;;;21.30;;
36315;SDS011;22343;50.820;2.666;2022-12-10T15:18:03;48.77;;;32.03;;
36315;SDS011;22343;50.820;2.666;2022-12-10T15:20:53;86.93;;;45.63;;
36315;SDS011;22343;50.820;2.666;2022-12-10T15:23:41;48.27;;;29.03;;
36315;SDS011;22343;50.820;2.666;2022-12-10T15:26:33;22.43;;;17.40;;
36315;SDS011;22343;50.820;2.666;2022-12-10T15:32:12;21.30;;;14.63;;
36315;SDS011;22343;50.820;2.666;2022-12-10T15:35:05;18.57;;;13.90;;
36315;SDS011;22343;50.820;2.666;2022-12-10T15:37:56;18.13;;;11.93;;
36315;SDS011;22343;50.820;2.666;2022-12-10T15:40:44;16.67;;;11.17;;
36315;SDS011;22343;50.820;2.666;2022-12-10T15:43:30;14.10;;;10.60;;
36315;SDS011;22343;50.820;2.666;2022-12-10T15:46:16;15.17;;;10.60;;
36315;SDS011;22343;50.820;2.666;2022-12-10T15:49:07;14.97;;;11.40;;
36315;SDS011;22343;50.820;2.666;2022-12-10T15:51:57;14.70;;;10.80;;
36315;SDS011;22343;50.820;2.666;2022-12-10T15:54:42;59.40;;;49.83;;
36315;SDS011;22343;50.820;2.666;2022-12-10T15:57:30;46.93;;;41.50;;
36315;SDS011;22343;50.820;2.666;2022-12-10T16:00:20;71.93;;;57.47;;
36315;SDS011;22343;50.820;2.666;2022-12-10T16:03:07;33.17;;;28.40;;
36315;SDS011;22343;50.820;2.666;2022-12-10T16:05:58;91.27;;;81.87;;
36315;SDS011;22343;50.820;2.666;2022-12-10T16:08:42;40.10;;;35.87;;
36315;SDS011;22343;50.820;2.666;2022-12-10T16:11:27;42.50;;;32.83;;
36315;SDS011;22343;50.820;2.666;2022-12-10T16:14:13;22.67;;;19.57;;
36315;SDS011;22343;50.820;2.666;2022-12-10T16:16:59;32.30;;;27.30;;
36315;SDS011;22343;50.820;2.666;2022-12-10T16:19:45;107.00;;;57.27;;
36315;SDS011;22343;50.820;2.666;2022-12-10T16:22:30;529.33;;;282.50;;
36315;SDS011;22343;50.820;2.666;2022-12-10T16:25:14;404.50;;;208.07;;
36315;SDS011;22343;50.820;2.666;2022-12-10T16:28:00;216.87;;;131.70;;
36315;SDS011;22343;50.820;2.666;2022-12-10T16:30:51;103.43;;;88.47;;
36315;SDS011;22343;50.820;2.666;2022-12-10T16:33:38;40.30;;;35.93;;
36315;SDS011;22343;50.820;2.666;2022-12-10T16:36:22;30.57;;;27.03;;
36315;SDS011;22343;50.820;2.666;2022-12-10T16:39:08;26.60;;;23.87;;
36315;SDS011;22343;50.820;2.666;2022-12-10T16:41:55;28.17;;;25.47;;
36315;SDS011;22343;50.820;2.666;2022-12-10T16:44:52;19.00;;;16.97;;
36315;SDS011;22343;50.820;2.666;2022-12-10T16:47:36;26.17;;;23.43;;
36315;SDS011;22343;50.820;2.666;2022-12-10T16:50:21;20.47;;;18.33;;
36315;SDS011;22343;50.820;2.666;2022-12-10T16:53:18;29.43;;;26.17;;
36315;SDS011;22343;50.820;2.666;2022-12-10T16:56:07;26.20;;;21.60;;
36315;SDS011;22343;50.820;2.666;2022-12-10T16:58:54;24.60;;;19.37;;
36315;SDS011;22343;50.820;2.666;2022-12-10T17:01:40;16.13;;;12.67;;
36315;SDS011;22343;50.820;2.666;2022-12-10T17:04:25;18.03;;;13.23;;
36315;SDS011;22343;50.820;2.666;2022-12-10T17:07:11;19.80;;;15.57;;
36315;SDS011;22343;50.820;2.666;2022-12-10T17:09:56;20.80;;;14.43;;
36315;SDS011;22343;50.820;2.666;2022-12-10T17:12:42;16.43;;;10.80;;
36315;SDS011;22343;50.820;2.666;2022-12-10T17:15:26;20.47;;;13.17;;
36315;SDS011;22343;50.820;2.666;2022-12-10T17:18:12;20.90;;;15.57;;
36315;SDS011;22343;50.820;2.666;2022-12-10T17:20:59;22.00;;;16.33;;
36315;SDS011;22343;50.820;2.666;2022-12-10T17:23:45;21.93;;;16.57;;
36315;SDS011;22343;50.820;2.666;2022-12-10T17:26:31;18.73;;;14.70;;
36315;SDS011;22343;50.820;2.666;2022-12-10T17:32:26;20.83;;;16.53;;
36315;SDS011;22343;50.820;2.666;2022-12-10T17:35:11;23.83;;;17.40;;
36315;SDS011;22343;50.820;2.666;2022-12-10T17:37:57;19.50;;;16.80;;
36315;SDS011;22343;50.820;2.666;2022-12-10T17:40:43;21.47;;;16.63;;
36315;SDS011;22343;50.820;2.666;2022-12-10T17:43:28;24.67;;;18.43;;
36315;SDS011;22343;50.820;2.666;2022-12-10T17:46:12;26.37;;;18.80;;
36315;SDS011;22343;50.820;2.666;2022-12-10T17:48:58;23.47;;;17.03;;
36315;SDS011;22343;50.820;2.666;2022-12-10T17:51:44;28.17;;;19.87;;
36315;SDS011;22343;50.820;2.666;2022-12-10T17:54:29;25.93;;;18.07;;
36315;SDS011;22343;50.820;2.666;2022-12-10T17:57:17;28.03;;;18.87;;
36315;SDS011;22343;50.820;2.666;2022-12-10T18:00:15;28.80;;;19.40;;
36315;SDS011;22343;50.820;2.666;2022-12-10T18:03:01;21.17;;;16.77;;
36315;SDS011;22343;50.820;2.666;2022-12-10T18:05:47;409.63;;;179.40;;
36315;SDS011;22343;50.820;2.666;2022-12-10T18:08:32;415.60;;;181.57;;
36315;SDS011;22343;50.820;2.666;2022-12-10T18:11:20;468.07;;;216.93;;
36315;SDS011;22343;50.820;2.666;2022-12-10T18:14:08;165.07;;;78.00;;
36315;SDS011;22343;50.820;2.666;2022-12-10T18:16:54;538.77;;;268.13;;
36315;SDS011;22343;50.820;2.666;2022-12-10T18:19:40;290.67;;;136.93;;
36315;SDS011;22343;50.820;2.666;2022-12-10T18:22:24;305.17;;;139.43;;
36315;SDS011;22343;50.820;2.666;2022-12-10T18:25:09;341.53;;;164.60;;
36315;SDS011;22343;50.820;2.666;2022-12-10T18:27:55;359.27;;;175.80;;
36315;SDS011;22343;50.820;2.666;2022-12-10T18:30:42;58.17;;;40.13;;
36315;SDS011;22343;50.820;2.666;2022-12-10T18:33:26;34.23;;;28.40;;
36315;SDS011;22343;50.820;2.666;2022-12-10T18:36:13;26.00;;;22.87;;
36315;SDS011;22343;50.820;2.666;2022-12-10T18:39:16;28.53;;;24.43;;
36315;SDS011;22343;50.820;2.666;2022-12-10T18:42:05;38.97;;;33.80;;
36315;SDS011;22343;50.820;2.666;2022-12-10T18:44:51;35.50;;;27.73;;
36315;SDS011;22343;50.820;2.666;2022-12-10T18:47:35;34.00;;;29.73;;
36315;SDS011;22343;50.820;2.666;2022-12-10T18:50:27;23.70;;;20.20;;
36315;SDS011;22343;50.820;2.666;2022-12-10T18:53:22;25.13;;;18.27;;
36315;SDS011;22343;50.820;2.666;2022-12-10T18:56:24;19.57;;;15.50;;